Time;durP1;ratioP1;P1;durP2;ratioP2;P2;SDS_P1;SDS_P2;PMS_P1;PMS_P2;Temp;Humidity;BMP_temperature;BMP_pressure;BME280_temperature;BME280_humidity;BME280_pressure;Samples;Min_cycle;Max_cycle;Signal;HPM_P1;HPM_P2
2021/04/28 07:33:23;;;;;;;;;;;10.10;99.90;;;;;;5200210;23;20457;-91
2021/04/28 07:35:50;;;;;;;2.83;1.95;;;10.40;99.90;;;;;;5053605;28;20408;-94
2021/04/28 07:38:16;;;;;;;;;;;10.30;99.90;;;;;;5055229;28;20055;-92
2021/04/28 09:11:02;;;;;;;;;;;9.60;99.90;;;;;;5178156;23;19921;-90
2021/04/28 09:13:28;;;;;;;;;;;9.70;99.90;;;;;;5038023;28;20265;-91
2021/04/28 09:15:55;;;;;;;;;;;9.80;99.90;;;;;;5037879;28;19921;-91
2021/04/28 09:18:34;;;;;;;;;;;9.90;99.90;;;;;;5037685;28;20017;-91
2021/04/28 09:21:00;;;;;;;;;;;9.90;99.90;;;;;;5037978;28;19925;-91
2021/04/28 09:23:27;;;;;;;;;;;10.00;99.90;;;;;;5037573;28;20250;-91
2021/04/28 09:25:54;;;;;;;;;;;10.20;99.90;;;;;;5037694;28;20250;-90
2021/04/28 09:28:22;;;;;;;;;;;10.30;99.90;;;;;;5037659;28;19943;-91
2021/04/28 09:30:49;;;;;;;;;;;10.30;99.90;;;;;;5037674;28;19921;-91
2021/04/28 09:33:15;;;;;;;;;;;10.50;99.90;;;;;;5037486;28;19924;-92
2021/04/28 09:35:41;;;;;;;;;;;10.60;99.90;;;;;;5037320;28;19924;-92
2021/04/28 09:38:08;;;;;;;;;;;10.70;99.90;;;;;;5037541;28;20350;-92
2021/04/28 09:43:39;;;;;;;;;;;10.80;99.90;;;;;;5038796;28;19923;-91
2021/04/28 09:46:05;;;;;;;;;;;10.70;99.90;;;;;;5037280;28;20262;-92
2021/04/28 09:48:31;;;;;;;;;;;10.70;99.90;;;;;;5037097;28;19955;-92
2021/04/28 09:51:02;;;;;;;;;;;10.80;99.90;;;;;;5036297;28;19990;-91
2021/04/28 09:53:29;;;;;;;;;;;10.80;99.90;;;;;;5037110;28;19927;-91
2021/04/28 09:55:55;;;;;;;;;;;10.80;99.90;;;;;;5036779;28;19931;-92
2021/04/28 09:58:22;;;;;;;;;;;10.70;99.90;;;;;;5036877;28;19921;-92
2021/04/28 10:00:58;;;;;;;;;;;10.70;99.90;;;;;;5036841;28;19929;-92
2021/04/28 10:03:25;;;;;;;;;;;10.70;99.90;;;;;;5036984;28;19921;-92
2021/04/28 10:05:52;;;;;;;;;;;10.80;99.90;;;;;;5036554;28;19920;-92
2021/04/28 10:08:20;;;;;;;;;;;10.80;99.90;;;;;;5036419;28;19927;-93
2021/04/28 10:10:46;;;;;;;;;;;10.90;99.90;;;;;;5036177;28;19932;-92
2021/04/28 10:13:13;;;;;;;;;;;10.90;99.90;;;;;;5036287;28;19921;-92
2021/04/28 10:15:39;;;;;;;;;;;11.00;99.90;;;;;;5036314;28;20272;-93
2021/04/28 10:18:07;;;;;;;;;;;11.10;99.90;;;;;;5036601;28;19933;-92
2021/04/28 10:20:34;;;;;;;;;;;11.20;99.70;;;;;;5036471;28;19994;-92
2021/04/28 10:23:04;;;;;;;;;;;11.30;99.90;;;;;;5036636;28;19946;-93
2021/04/28 10:25:30;;;;;;;;;;;11.30;99.90;;;;;;5036464;28;19985;-92
2021/04/28 10:27:57;;;;;;;;;;;11.20;99.40;;;;;;5036274;28;20371;-92
2021/04/28 10:30:23;;;;;;;;;;;11.20;99.90;;;;;;5036699;28;20239;-92
2021/04/28 10:32:49;;;;;;;;;;;11.20;99.90;;;;;;5036456;28;19931;-93
2021/04/28 10:35:17;;;;;;;;;;;11.20;99.90;;;;;;5036193;28;19970;-93
2021/04/28 10:37:46;;;;;;;;;;;11.20;99.20;;;;;;5036297;28;19925;-93
2021/04/28 10:40:13;;;;;;;;;;;11.20;99.90;;;;;;5036363;28;19939;-92
2021/04/28 10:42:39;;;;;;;;;;;11.20;99.90;;;;;;5036306;28;19921;-92
2021/04/28 10:45:06;;;;;;;;;;;11.20;99.90;;;;;;5035986;28;19929;-93
2021/04/28 10:47:35;;;;;;;;;;;11.20;99.90;;;;;;5036203;28;19932;-93
2021/04/28 10:50:03;;;;;;;;;;;11.20;99.90;;;;;;5035963;28;19932;-93
2021/04/28 10:52:31;;;;;;;;;;;11.20;99.90;;;;;;5035940;28;19929;-93
2021/04/28 10:54:58;;;;;;;;;;;11.20;99.90;;;;;;5035809;28;19928;-92
2021/04/28 10:57:45;;;;;;;;;;;11.40;99.90;;;;;;5036024;28;19990;-93
2021/04/28 11:00:26;;;;;;;;;;;11.30;99.90;;;;;;5030818;28;19921;-92
2021/04/28 11:02:55;;;;;;;;;;;11.30;99.90;;;;;;5035778;28;19921;-93
2021/04/28 11:05:22;;;;;;;;;;;11.10;99.90;;;;;;5035920;28;20066;-91
2021/04/28 11:07:52;;;;;;;;;;;11.10;99.90;;;;;;5039004;28;19921;-94
2021/04/28 11:10:29;;;;;;;;;;;10.30;99.90;;;;;;5036706;28;19928;-93
2021/04/28 11:13:08;;;;;;;;;;;11.10;99.90;;;;;;5035973;28;20343;-92
2021/04/28 11:15:47;;;;;;;;;;;11.00;99.90;;;;;;5035620;28;20311;-92
2021/04/28 11:18:32;;;;;;;;;;;11.00;99.90;;;;;;5035812;28;19921;-92
2021/04/28 11:21:26;;;;;;;;;;;11.00;99.90;;;;;;5035826;28;19974;-92
2021/04/28 11:26:56;;;;;;;;;;;10.90;99.90;;;;;;4956506;29;20058;-91
2021/04/28 11:29:23;;;;;;;;;;;10.80;99.90;;;;;;4956305;29;19948;-92
2021/04/28 11:31:50;;;;;;;;;;;10.80;99.90;;;;;;4955869;29;20332;-92
2021/04/28 11:34:17;;;;;;;;;;;10.80;99.90;;;;;;4955950;29;19922;-91
2021/04/28 11:36:49;;;;;;;;;;;10.80;99.90;;;;;;4956314;29;19934;-91
2021/04/28 11:39:30;;;;;;;;;;;10.70;99.90;;;;;;4955818;29;20301;-92
2021/04/28 11:42:03;;;;;;;;;;;10.70;99.90;;;;;;4955918;29;19922;-92
2021/04/28 11:44:30;;;;;;;;;;;10.60;99.90;;;;;;4955963;29;19922;-91
2021/04/28 11:46:57;;;;;;;;;;;10.50;99.90;;;;;;4955643;29;20352;-92
2021/04/28 11:49:24;;;;;;;;;;;10.50;99.90;;;;;;4955967;29;20409;-90
2021/04/28 11:51:56;;;;;;;;;;;10.50;99.90;;;;;;4955765;29;20914;-91
2021/04/28 11:54:23;;;;;;;;;;;10.40;99.90;;;;;;4956070;29;19965;-90
2021/04/28 11:56:49;;;;;;;;;;;10.40;99.90;;;;;;4956237;29;19934;-91
2021/04/28 11:59:20;;;;;;;;;;;10.40;99.90;;;;;;4986854;28;19925;-91
2021/04/28 12:01:46;;;;;;;;;;;10.30;99.90;;;;;;5035187;28;20342;-91
2021/04/28 12:04:13;;;;;;;;;;;10.30;99.90;;;;;;5035224;28;20011;-91
2021/04/28 12:06:40;;;;;;;;;;;10.20;99.90;;;;;;5035415;28;20324;-92
2021/04/28 12:12:17;;;;;;;;;;;10.00;99.90;;;;;;5073037;23;19971;-91
2021/04/28 12:14:45;;;;;;;;;;;9.90;99.90;;;;;;5034631;28;20040;-91
2021/04/28 12:17:12;;;;;;;;;;;9.80;99.90;;;;;;5035247;28;19925;-91
2021/04/28 12:51:22;;;;;;;;;;;10.20;99.90;;;;;;5056873;28;19924;-91
2021/04/28 12:53:49;;;;;;;;;;;11.10;99.90;;;;;;5058050;28;20269;-92
2021/04/28 12:56:15;;;;;;;;;;;10.20;99.90;;;;;;5058026;28;19925;-91
2021/04/28 13:01:55;;;;;;;;;;;10.20;99.90;;;;;;5060814;28;19976;-90
2021/04/28 13:10:19;;;;;;;;;;;10.20;99.90;;;;;;5045734;28;19924;-91
2021/04/28 13:12:45;;;;;;;;;;;10.30;99.90;;;;;;5038076;28;19929;-94
2021/04/28 13:15:13;;;;;;;;;;;10.40;99.90;;;;;;5037503;28;19951;-95
2021/04/28 13:17:59;;;;;;;;;;;10.40;99.90;;;;;;5037963;28;20025;-93
2021/04/28 13:20:26;;;;;;;;;;;10.60;99.60;;;;;;5037314;28;19929;-93
2021/04/28 13:22:52;;;;;;;;;;;10.60;99.90;;;;;;5037365;28;19940;-94
2021/04/28 13:25:20;;;;;;;;;;;10.70;99.90;;;;;;5037656;28;19925;-94
2021/04/28 13:27:46;;;;;;;;;;;10.70;99.90;;;;;;5037957;28;19925;-94
2021/04/28 13:30:19;;;;;;;;;;;10.80;99.90;;;;;;5037671;28;19936;-94
2021/04/28 13:32:46;;;;;;;;;;;10.90;97.70;;;;;;5037506;28;19929;-94
2021/04/28 13:35:16;;;;;;;;;;;11.00;98.10;;;;;;5037588;28;19925;-92
2021/04/28 13:37:42;;;;;;;;;;;11.10;99.90;;;;;;5037670;28;19925;-93
2021/04/28 13:40:11;;;;;;;;;;;11.10;99.90;;;;;;5037544;28;20372;-92
2021/04/28 13:42:38;;;;;;;;;;;11.10;99.90;;;;;;5037662;28;19983;-92
2021/04/28 13:45:05;;;;;;;;;;;11.10;99.90;;;;;;5037532;28;19925;-92
2021/04/28 13:47:31;;;;;;;;;;;11.20;99.40;;;;;;5036358;28;19959;-92
2021/04/28 13:49:58;;;;;;;;;;;11.20;98.50;;;;;;5037500;28;19967;-92
2021/04/28 13:52:24;;;;;;;;;;;11.20;98.80;;;;;;5037363;28;19925;-92
2021/04/28 13:54:50;;;;;;;;;;;11.30;98.00;;;;;;5037297;28;19925;-92
2021/04/28 13:57:17;;;;;;;;;;;11.20;97.40;;;;;;5036941;28;19925;-94
2021/04/28 13:59:44;;;;;;;;;;;11.20;95.70;;;;;;5036960;28;20376;-94
2021/04/28 14:02:11;;;;;;;;;;;11.20;94.60;;;;;;5037151;28;19935;-93
2021/04/28 14:04:38;;;;;;;;;;;11.30;95.40;;;;;;5036770;28;20364;-93
2021/04/28 14:07:04;;;;;;;;;;;11.30;96.70;;;;;;5036424;28;19955;-93
2021/04/28 14:09:30;;;;;;;;;;;11.30;96.30;;;;;;5036742;28;20011;-93
2021/04/28 14:11:57;;;;;;;;;;;11.20;99.90;;;;;;5036760;28;19991;-94
2021/04/28 14:14:23;;;;;;;;;;;11.20;98.60;;;;;;5036277;28;19926;-94
2021/04/28 14:16:51;;;;;;;;;;;11.30;97.40;;;;;;5036944;28;19936;-94
2021/04/28 14:19:17;;;;;;;;;;;11.40;98.90;;;;;;5036815;28;19925;-93
2021/04/28 14:21:43;;;;;;;;;;;11.40;93.70;;;;;;5036548;28;19966;-93
2021/04/28 14:24:10;;;;;;;;;;;11.40;94.80;;;;;;5036292;28;19929;-94
2021/04/28 14:26:36;;;;;;;;;;;11.30;90.80;;;;;;5036606;28;19955;-94
2021/04/28 14:29:02;;;;;;;;;;;11.20;92.70;;;;;;5036232;28;20358;-94
2021/04/28 14:31:29;;;;;;;;;;;11.10;90.50;;;;;;5036372;28;19935;-94
2021/04/28 14:33:56;;;;;;;;;;;11.10;97.40;;;;;;5036073;28;19929;-93
2021/04/28 14:36:22;;;;;;;;;;;11.00;95.50;;;;;;5036423;28;19925;-94
2021/04/28 14:38:49;;;;;;;;;;;11.10;97.60;;;;;;5036343;28;19935;-94
2021/04/28 14:41:15;;;;;;;;;;;11.00;97.50;;;;;;5036104;28;19978;-94
2021/04/28 14:43:41;;;;;;;;;;;11.10;97.60;;;;;;5036131;28;19925;-94
2021/04/28 14:46:08;;;;;;;;;;;11.20;93.00;;;;;;5036110;28;20023;-95
2021/04/28 14:48:34;;;;;;;;;;;11.20;94.00;;;;;;5043281;28;20023;-90
2021/04/28 14:51:03;;;;;;;;;;;11.20;95.70;;;;;;5035952;28;20261;-94
2021/04/28 14:53:29;;;;;;;;;;;11.20;95.00;;;;;;5036063;28;19925;-93
2021/04/28 14:55:55;;;;;;;;;;;11.20;97.30;;;;;;5035876;28;19929;-95
2021/04/28 14:58:22;;;;;;;;;;;11.10;95.80;;;;;;5035900;28;19925;-94
2021/04/28 15:06:20;;;;;;;;;;;10.90;95.00;;;;;;5269564;23;19916;-94
2021/04/28 15:08:47;;;;;;;;;;;10.90;93.60;;;;;;5036914;28;20376;-92
2021/04/28 15:11:13;;;;;;;;;;;10.80;90.10;;;;;;5035290;28;19937;-94
2021/04/28 15:13:40;;;;;;;;;;;10.80;94.90;;;;;;5035944;28;20247;-93
2021/04/28 15:16:06;;;;;;;;;;;10.90;88.70;;;;;;5035592;28;19929;-93
2021/04/28 15:18:33;;;;;;;;;;;10.80;93.50;;;;;;5035901;28;20272;-94
2021/04/28 15:20:59;;;;;;;;;;;10.80;94.50;;;;;;5035755;28;19925;-94
2021/04/28 15:23:27;;;;;;;;;;;10.80;94.30;;;;;;5035842;28;19932;-94
2021/04/28 15:25:53;;;;;;;;;;;10.90;87.80;;;;;;5035834;28;20081;-93
2021/04/28 15:28:19;;;;;;;;;;;10.90;90.90;;;;;;5035769;28;20004;-94
2021/04/28 15:30:46;;;;;;;;;;;10.80;87.70;;;;;;5034795;28;20349;-94
2021/04/28 15:33:12;;;;;;;;;;;10.90;90.50;;;;;;5035571;28;20010;-94
2021/04/28 15:35:39;;;;;;;;;;;10.90;90.40;;;;;;5035187;28;19932;-94
2021/04/28 15:38:05;;;;;;;;;;;10.90;93.80;;;;;;5035197;28;20389;-94
2021/04/28 15:40:33;;;;;;;;;;;10.90;95.10;;;;;;5034750;28;20009;-94
2021/04/28 15:42:59;;;;;;;;;;;10.90;95.70;;;;;;5035421;28;19925;-94
2021/04/28 15:45:26;;;;;;;;;;;10.90;93.40;;;;;;5035184;28;20350;-94
2021/04/28 15:47:52;;;;;;;;;;;10.90;95.40;;;;;;5035415;28;19939;-94
2021/04/28 15:50:18;;;;;;;;;;;10.90;93.70;;;;;;5035237;28;19936;-94
2021/04/28 15:52:45;;;;;;;;;;;10.90;98.80;;;;;;5035577;28;19929;-94
2021/04/28 15:55:11;;;;;;;;;;;10.80;99.40;;;;;;5035291;28;19925;-93
2021/04/28 15:57:39;;;;;;;;;;;10.80;98.90;;;;;;5035317;28;19936;-94
2021/04/28 16:00:05;;;;;;;;;;;10.70;99.90;;;;;;5035310;28;20010;-94
2021/04/28 16:02:32;;;;;;;;;;;10.70;99.90;;;;;;5035376;28;19955;-94
2021/04/28 16:04:58;;;;;;;;;;;10.70;98.60;;;;;;5035308;28;19925;-94
2021/04/28 16:07:25;;;;;;;;;;;10.60;96.70;;;;;;5035110;28;19961;-94
2021/04/28 16:09:51;;;;;;;;;;;10.60;97.30;;;;;;5035223;28;19925;-94
2021/04/28 16:12:17;;;;;;;;;;;10.60;97.30;;;;;;5038972;28;19925;-94
2021/04/28 16:14:44;;;;;;;;;;;10.60;99.50;;;;;;5038973;28;20304;-94
2021/04/28 16:17:11;;;;;;;;;;;10.60;99.90;;;;;;5038894;28;20350;-94
2021/04/28 16:19:37;;;;;;;;;;;10.60;99.60;;;;;;5038627;28;19926;-94
2021/04/28 16:22:04;;;;;;;;;;;10.60;99.50;;;;;;5038609;28;19925;-94
2021/04/28 16:24:30;;;;;;;;;;;10.60;99.90;;;;;;5038955;28;19925;-94
2021/04/28 16:26:57;;;;;;;;;;;10.60;98.90;;;;;;5038516;28;19925;-93
2021/04/28 16:29:23;;;;;;;;;;;10.60;98.50;;;;;;5038776;28;19935;-94
2021/04/28 16:31:50;;;;;;;;;;;10.60;99.90;;;;;;5038642;28;19975;-94
2021/04/28 16:34:17;;;;;;;;;;;10.70;99.90;;;;;;5038562;28;20345;-94
2021/04/28 16:36:43;;;;;;;;;;;10.70;99.20;;;;;;5038787;28;20266;-93
2021/04/28 16:39:11;;;;;;;;;;;10.70;99.40;;;;;;5038580;28;19991;-93
2021/04/28 16:41:37;;;;;;;;;;;10.70;99.80;;;;;;5038476;28;20368;-93
2021/04/28 16:44:04;;;;;;;;;;;10.70;97.40;;;;;;5038370;28;20081;-94
2021/04/28 16:46:31;;;;;;;;;;;10.70;99.70;;;;;;5038468;28;19925;-94
2021/04/28 16:48:58;;;;;;;;;;;10.70;98.70;;;;;;5038423;28;19929;-94
2021/04/28 16:51:24;;;;;;;;;;;10.70;98.80;;;;;;5038373;28;20303;-94
2021/04/28 16:53:51;;;;;;;;;;;10.60;99.50;;;;;;5038218;28;19932;-93
2021/04/28 16:56:17;;;;;;;;;;;10.60;98.90;;;;;;5038088;28;19925;-93
2021/04/28 16:58:43;;;;;;;;;;;10.50;99.40;;;;;;5037843;28;19959;-94
2021/04/28 17:01:10;;;;;;;;;;;10.50;99.90;;;;;;5037888;28;19928;-94
2021/04/28 17:03:36;;;;;;;;;;;10.50;99.90;;;;;;5038020;28;20014;-93
2021/04/28 17:06:04;;;;;;;;;;;10.50;99.90;;;;;;5037894;28;19929;-93
2021/04/28 17:08:30;;;;;;;;;;;10.30;99.90;;;;;;5037964;28;19935;-94
2021/04/28 17:10:56;;;;;;;;;;;10.40;99.90;;;;;;5037795;28;19936;-94
2021/04/28 17:13:23;;;;;;;;;;;10.30;98.40;;;;;;5037722;28;19929;-95
2021/04/28 17:15:49;;;;;;;;;;;10.30;99.40;;;;;;5037517;28;19925;-94
2021/04/28 17:18:16;;;;;;;;;;;10.30;99.90;;;;;;5037924;28;19925;-93
2021/04/28 17:20:42;;;;;;;;;;;10.20;99.90;;;;;;5037968;28;19940;-94
2021/04/28 17:23:09;;;;;;;;;;;10.20;98.40;;;;;;5036661;28;19929;-94
2021/04/28 17:25:36;;;;;;;;;;;10.20;99.90;;;;;;5037701;28;20338;-94
2021/04/28 17:28:02;;;;;;;;;;;10.20;99.40;;;;;;5037669;28;19929;-93
2021/04/28 17:30:28;;;;;;;;;;;10.30;96.60;;;;;;5037417;28;19939;-93
2021/04/28 17:32:56;;;;;;;;;;;10.30;98.00;;;;;;5037503;28;20243;-94
2021/04/28 17:35:22;;;;;;;;;;;10.20;96.70;;;;;;5037370;28;20027;-93
2021/04/28 17:37:49;;;;;;;;;;;10.20;95.00;;;;;;5037309;28;19932;-93
2021/04/28 17:40:16;;;;;;;;;;;10.10;98.00;;;;;;5037276;28;20399;-93
2021/04/28 17:42:43;;;;;;;;;;;10.10;98.60;;;;;;5037474;28;19929;-92
2021/04/28 17:45:09;;;;;;;;;;;10.10;96.50;;;;;;5037324;28;20059;-94
2021/04/28 17:47:36;;;;;;;;;;;10.10;97.70;;;;;;5037319;28;19939;-93
2021/04/28 17:50:02;;;;;;;;;;;10.00;99.70;;;;;;5037248;28;20005;-93
2021/04/28 17:52:29;;;;;;;;;;;10.00;98.30;;;;;;5037232;28;19935;-93
2021/04/28 17:54:55;;;;;;;;;;;10.00;93.60;;;;;;5036905;28;20058;-93
2021/04/28 17:57:22;;;;;;;;;;;10.00;96.60;;;;;;5037233;28;19936;-92
2021/04/28 17:59:49;;;;;;;;;;;9.90;92.00;;;;;;5037032;28;19935;-93
2021/04/28 18:02:16;;;;;;;;;;;9.80;94.00;;;;;;5037072;28;20379;-93
2021/04/28 18:04:42;;;;;;;;;;;9.80;95.60;;;;;;5037138;28;19939;-91
2021/04/28 18:10:12;;;;;;;;;;;9.80;92.20;;;;;;5038696;28;20280;-92
2021/04/28 18:12:40;;;;;;;;;;;9.70;94.00;;;;;;5036890;28;19986;-92
2021/04/28 18:15:07;;;;;;;;;;;9.70;92.30;;;;;;5036649;28;19940;-92
2021/04/28 18:17:33;;;;;;;;;;;9.70;93.30;;;;;;5036769;28;19925;-92
2021/04/28 18:23:06;;;;;;;;;;;9.70;90.90;;;;;;5090735;23;19940;-91
2021/04/28 18:25:32;;;;;;;;;;;9.60;94.60;;;;;;5057178;28;20004;-90
2021/04/28 18:28:00;;;;;;;;;;;9.60;92.30;;;;;;5056650;28;19932;-90
2021/04/28 18:30:26;;;;;;;;;;;9.60;94.10;;;;;;5056364;28;19924;-90
2021/04/28 18:32:52;;;;;;;;;;;9.50;93.80;;;;;;5056229;28;20360;-91
2021/04/28 18:35:21;;;;;;;;;;;9.40;96.70;;;;;;5056279;28;19931;-90
2021/04/28 18:37:47;;;;;;;;;;;9.40;93.40;;;;;;5056469;28;20023;-91
2021/04/28 18:40:14;;;;;;;;;;;9.40;94.90;;;;;;5056562;28;20316;-91
2021/04/28 18:42:41;;;;;;;;;;;9.30;97.50;;;;;;5056332;28;19952;-91
2021/04/28 18:45:10;;;;;;;;;;;9.30;96.10;;;;;;5056305;28;19925;-92
2021/04/28 18:47:36;;;;;;;;;;;9.30;96.70;;;;;;5056049;28;19982;-91
2021/04/28 18:50:03;;;;;;;;;;;9.30;98.50;;;;;;5056202;28;19924;-92
2021/04/28 18:52:29;;;;;;;;;;;9.20;98.50;;;;;;5056313;28;19935;-89
2021/04/28 18:54:56;;;;;;;;;;;9.20;98.60;;;;;;5056195;28;19955;-91
2021/04/28 18:57:22;;;;;;;;;;;9.30;92.30;;;;;;5056093;28;19935;-91
2021/04/28 18:59:49;;;;;;;;;;;9.30;94.70;;;;;;5056230;28;19929;-90
2021/04/28 19:02:16;;;;;;;;;;;9.30;93.90;;;;;;5056079;28;19939;-91
2021/04/28 19:04:42;;;;;;;;;;;9.30;94.10;;;;;;5049025;28;20342;-90
2021/04/28 19:07:10;;;;;;;;;;;9.30;96.00;;;;;;5035918;28;19980;-91
2021/04/28 19:09:37;;;;;;;;;;;9.20;93.20;;;;;;5036847;28;20257;-89
2021/04/28 19:15:07;;;;;;;;;;;9.30;92.40;;;;;;5048013;28;19982;-86
2021/04/28 19:17:36;;;;;;;;;;;9.30;92.40;;;;;;5046503;28;19955;-86
2021/04/28 19:20:02;;;;;;;;;;;9.30;92.70;;;;;;5038871;28;19925;-87
2021/04/28 19:25:22;;;;;;;;;;;9.20;94.90;;;;;;5034447;28;19979;-87
2021/04/28 19:27:52;;;;;;;;;;;9.10;90.90;;;;;;5040189;28;19933;-91
2021/04/28 19:30:24;;;;;;;;;;;9.10;93.90;;;;;;5047247;28;19956;-87
2021/04/28 19:33:02;;;;;;;;;;;9.00;91.70;;;;;;5044920;28;20444;-91
2021/04/28 19:35:32;;;;;;;;;;;9.00;97.00;;;;;;5038457;28;19932;-92
2021/04/28 19:37:58;;;;;;;;;;;9.00;96.70;;;;;;5038157;28;19933;-92
2021/04/28 19:40:25;;;;;;;;;;;9.00;97.20;;;;;;5038151;28;19968;-93
2021/04/28 19:42:52;;;;;;;;;;;8.90;96.40;;;;;;5046144;28;19924;-91
2021/04/28 19:45:19;;;;;;;;;;;8.90;94.70;;;;;;5055410;28;19960;-92
